Pomona, IL (62975)

6:55 PM CST on December 04, 2016 (GMT -0600)
SIU Physical Plant | | Change Station

Elev 430 ft 37.71 °N, 89.22 °W | Updated 6 minutes ago

Overcast
Overcast
42.1 °F
Feels Like 39 °F
N
5.0
Wind Variable Wind from North
Gusts 10.0 mph

Today
High -- | Low -- °F
--% Chance of Precip.
Yesterday
High -- | Low -- °F
Precip. -- in
Pressure 30.01 in
Visibility 10.0 miles
Clouds Overcast 1800 ft
Windchill 39 °F
Dew Point 38 °F
Humidity 84%
Rainfall 0.05 in
Snow Depth Not available.
6:56 AM 4:38 PM
Waxing Crescent, 27% visible
METAR KMDH 050052Z 30005KT 10SM OVC018 05/03 A3001 RMK AO2 SLP163 T00500028
Pressure 30.01 in
Visibility 10.0 miles
Clouds Overcast 1800 ft
Windchill 39 °F
Dew Point 38 °F
Humidity 84%
Rainfall 0.05 in
Snow Depth Not available.
6:56 AM 4:38 PM
Waxing Crescent, 27% visible
METAR KMDH 050052Z 30005KT 10SM OVC018 05/03 A3001 RMK AO2 SLP163 T00500028

10-Day Weather Forecast

Almanac

Astronomy

Dec. 04, 2016 Rise Set
Actual Time
Civil Twilight
Nautical Twilight
Astronomical Twilight
Moon
Length of Visible Light
Length of Day
Tomorrow will be .
, % of the Moon is Illuminated

Today's Extremes

State Highs State Lows

Community

WunderPhotos

Upload Photos

1,955,703 photos uploaded!

WunderBlog® & News

Nearby

Air Quality

  Air Quality AQ Index Pollutant
Not available.

Snow Depth

Station Depth Elevation

Earthquake Activity

City Distance Mag. Time & Date
Minimum magnitude displayed is 2.5.

Coastal Water Temperatures

Place Temperature

Stations

Nearby Weather Stations

Station Location Temp. Windchill Dew Point Humidity Wind Precip. Elev Updated Type
                   

Watches & Warnings

There are currently no watches in effect.